sensor_id;sensor_type;location;lat;lon;timestamp;P1;durP1;ratioP1;P2;durP2;ratioP2
23812;SDS011;12087;45.190;5.688;2023-03-25T00:02:38;9.45;;;6.18;;
23812;SDS011;12087;45.190;5.688;2023-03-25T00:08:01;9.32;;;7.53;;
23812;SDS011;12087;45.190;5.688;2023-03-25T00:13:25;8.98;;;6.28;;
23812;SDS011;12087;45.190;5.688;2023-03-25T00:18:50;11.85;;;7.82;;
23812;SDS011;12087;45.190;5.688;2023-03-25T00:24:13;11.00;;;8.05;;
23812;SDS011;12087;45.190;5.688;2023-03-25T00:29:38;11.77;;;8.15;;
23812;SDS011;12087;45.190;5.688;2023-03-25T00:35:01;10.05;;;6.55;;
23812;SDS011;12087;45.190;5.688;2023-03-25T00:40:23;11.85;;;7.53;;
23812;SDS011;12087;45.190;5.688;2023-03-25T00:45:48;10.18;;;6.03;;
23812;SDS011;12087;45.190;5.688;2023-03-25T00:51:15;7.82;;;5.30;;
23812;SDS011;12087;45.190;5.688;2023-03-25T00:56:40;6.22;;;4.45;;
23812;SDS011;12087;45.190;5.688;2023-03-25T01:02:04;11.65;;;6.20;;
23812;SDS011;12087;45.190;5.688;2023-03-25T01:07:27;14.55;;;9.60;;
23812;SDS011;12087;45.190;5.688;2023-03-25T01:12:51;17.83;;;12.40;;
23812;SDS011;12087;45.190;5.688;2023-03-25T01:18:14;22.42;;;14.18;;
23812;SDS011;12087;45.190;5.688;2023-03-25T01:23:37;22.77;;;15.40;;
23812;SDS011;12087;45.190;5.688;2023-03-25T01:28:59;18.65;;;13.52;;
23812;SDS011;12087;45.190;5.688;2023-03-25T01:34:23;16.52;;;12.32;;
23812;SDS011;12087;45.190;5.688;2023-03-25T01:39:45;15.13;;;12.95;;
23812;SDS011;12087;45.190;5.688;2023-03-25T01:50:56;11.10;;;8.05;;
23812;SDS011;12087;45.190;5.688;2023-03-25T01:56:23;11.57;;;7.22;;
23812;SDS011;12087;45.190;5.688;2023-03-25T02:01:51;9.10;;;6.15;;
23812;SDS011;12087;45.190;5.688;2023-03-25T02:07:15;10.45;;;6.18;;
23812;SDS011;12087;45.190;5.688;2023-03-25T02:12:39;8.20;;;5.70;;
23812;SDS011;12087;45.190;5.688;2023-03-25T02:18:07;8.90;;;4.55;;
23812;SDS011;12087;45.190;5.688;2023-03-25T02:23:46;7.05;;;4.57;;
23812;SDS011;12087;45.190;5.688;2023-03-25T02:29:36;8.30;;;5.35;;
23812;SDS011;12087;45.190;5.688;2023-03-25T02:35:25;10.48;;;5.18;;
23812;SDS011;12087;45.190;5.688;2023-03-25T02:40:55;15.32;;;4.90;;
23812;SDS011;12087;45.190;5.688;2023-03-25T02:46:23;10.48;;;4.80;;
23812;SDS011;12087;45.190;5.688;2023-03-25T02:51:48;10.35;;;4.75;;
23812;SDS011;12087;45.190;5.688;2023-03-25T02:57:17;8.25;;;4.60;;
23812;SDS011;12087;45.190;5.688;2023-03-25T03:02:42;9.60;;;4.63;;
23812;SDS011;12087;45.190;5.688;2023-03-25T03:08:16;10.27;;;4.97;;
23812;SDS011;12087;45.190;5.688;2023-03-25T03:13:58;8.60;;;4.05;;
23812;SDS011;12087;45.190;5.688;2023-03-25T03:24:54;4.45;;;3.20;;
23812;SDS011;12087;45.190;5.688;2023-03-25T03:30:24;4.32;;;2.88;;
23812;SDS011;12087;45.190;5.688;2023-03-25T03:35:51;5.15;;;3.47;;
23812;SDS011;12087;45.190;5.688;2023-03-25T03:41:17;5.60;;;3.30;;
23812;SDS011;12087;45.190;5.688;2023-03-25T03:46:45;8.30;;;3.25;;
23812;SDS011;12087;45.190;5.688;2023-03-25T03:52:14;7.90;;;4.32;;
23812;SDS011;12087;45.190;5.688;2023-03-25T03:57:39;13.02;;;5.10;;
23812;SDS011;12087;45.190;5.688;2023-03-25T04:03:08;11.80;;;5.25;;
23812;SDS011;12087;45.190;5.688;2023-03-25T04:08:36;11.45;;;5.30;;
23812;SDS011;12087;45.190;5.688;2023-03-25T04:14:03;10.40;;;4.63;;
23812;SDS011;12087;45.190;5.688;2023-03-25T04:19:30;7.07;;;4.60;;
23812;SDS011;12087;45.190;5.688;2023-03-25T04:24:53;9.40;;;4.70;;
23812;SDS011;12087;45.190;5.688;2023-03-25T04:30:15;8.73;;;5.35;;
23812;SDS011;12087;45.190;5.688;2023-03-25T04:35:39;8.63;;;5.45;;
23812;SDS011;12087;45.190;5.688;2023-03-25T04:41:02;21.67;;;10.82;;
23812;SDS011;12087;45.190;5.688;2023-03-25T04:46:26;8.73;;;6.70;;
23812;SDS011;12087;45.190;5.688;2023-03-25T04:51:50;12.52;;;6.30;;
23812;SDS011;12087;45.190;5.688;2023-03-25T04:57:13;11.05;;;5.78;;
23812;SDS011;12087;45.190;5.688;2023-03-25T05:02:35;13.98;;;6.38;;
23812;SDS011;12087;45.190;5.688;2023-03-25T05:07:59;11.15;;;6.30;;
23812;SDS011;12087;45.190;5.688;2023-03-25T05:13:22;10.10;;;4.65;;
23812;SDS011;12087;45.190;5.688;2023-03-25T05:18:44;7.93;;;3.78;;
23812;SDS011;12087;45.190;5.688;2023-03-25T05:24:08;5.50;;;2.55;;
23812;SDS011;12087;45.190;5.688;2023-03-25T05:29:32;5.43;;;2.97;;
23812;SDS011;12087;45.190;5.688;2023-03-25T05:34:54;5.28;;;2.97;;
23812;SDS011;12087;45.190;5.688;2023-03-25T05:40:18;6.22;;;3.65;;
23812;SDS011;12087;45.190;5.688;2023-03-25T05:45:40;12.68;;;5.28;;
23812;SDS011;12087;45.190;5.688;2023-03-25T05:51:04;22.08;;;8.68;;
23812;SDS011;12087;45.190;5.688;2023-03-25T05:56:34;10.50;;;4.50;;
23812;SDS011;12087;45.190;5.688;2023-03-25T06:01:57;8.27;;;4.05;;
23812;SDS011;12087;45.190;5.688;2023-03-25T06:07:19;12.02;;;4.03;;
23812;SDS011;12087;45.190;5.688;2023-03-25T06:12:43;6.88;;;3.08;;
23812;SDS011;12087;45.190;5.688;2023-03-25T06:18:06;8.93;;;3.30;;
23812;SDS011;12087;45.190;5.688;2023-03-25T06:23:30;7.35;;;3.38;;
23812;SDS011;12087;45.190;5.688;2023-03-25T06:28:55;6.13;;;2.85;;
23812;SDS011;12087;45.190;5.688;2023-03-25T06:34:18;9.40;;;2.83;;
23812;SDS011;12087;45.190;5.688;2023-03-25T06:39:40;4.63;;;3.00;;
23812;SDS011;12087;45.190;5.688;2023-03-25T06:45:10;5.90;;;2.55;;
23812;SDS011;12087;45.190;5.688;2023-03-25T06:50:33;3.47;;;2.35;;
23812;SDS011;12087;45.190;5.688;2023-03-25T06:55:55;8.18;;;3.13;;
23812;SDS011;12087;45.190;5.688;2023-03-25T07:01:19;9.35;;;3.15;;
23812;SDS011;12087;45.190;5.688;2023-03-25T07:06:41;6.20;;;2.75;;
23812;SDS011;12087;45.190;5.688;2023-03-25T07:12:03;3.13;;;2.50;;
23812;SDS011;12087;45.190;5.688;2023-03-25T07:17:27;5.65;;;2.25;;
23812;SDS011;12087;45.190;5.688;2023-03-25T07:22:50;3.60;;;1.77;;
23812;SDS011;12087;45.190;5.688;2023-03-25T07:28:13;3.65;;;2.63;;
23812;SDS011;12087;45.190;5.688;2023-03-25T07:33:37;11.32;;;2.22;;
23812;SDS011;12087;45.190;5.688;2023-03-25T07:38:59;5.63;;;2.40;;
23812;SDS011;12087;45.190;5.688;2023-03-25T07:44:22;6.00;;;1.73;;
23812;SDS011;12087;45.190;5.688;2023-03-25T07:49:46;7.60;;;3.25;;
23812;SDS011;12087;45.190;5.688;2023-03-25T07:55:09;3.72;;;2.30;;
23812;SDS011;12087;45.190;5.688;2023-03-25T08:00:31;7.35;;;2.20;;
23812;SDS011;12087;45.190;5.688;2023-03-25T08:05:55;5.57;;;2.55;;
23812;SDS011;12087;45.190;5.688;2023-03-25T08:11:20;5.80;;;2.70;;
23812;SDS011;12087;45.190;5.688;2023-03-25T08:16:42;3.88;;;2.70;;
23812;SDS011;12087;45.190;5.688;2023-03-25T08:22:06;7.30;;;2.75;;
23812;SDS011;12087;45.190;5.688;2023-03-25T08:27:28;5.03;;;2.70;;
23812;SDS011;12087;45.190;5.688;2023-03-25T08:32:51;4.32;;;2.72;;
23812;SDS011;12087;45.190;5.688;2023-03-25T08:38:15;6.85;;;2.78;;
23812;SDS011;12087;45.190;5.688;2023-03-25T08:43:38;10.20;;;2.33;;
23812;SDS011;12087;45.190;5.688;2023-03-25T08:49:00;4.55;;;2.35;;
23812;SDS011;12087;45.190;5.688;2023-03-25T08:54:24;8.40;;;2.20;;
23812;SDS011;12087;45.190;5.688;2023-03-25T08:59:47;9.32;;;2.95;;
23812;SDS011;12087;45.190;5.688;2023-03-25T09:05:10;8.38;;;3.38;;
23812;SDS011;12087;45.190;5.688;2023-03-25T09:10:36;5.47;;;2.28;;
23812;SDS011;12087;45.190;5.688;2023-03-25T09:15:58;8.65;;;2.47;;
23812;SDS011;12087;45.190;5.688;2023-03-25T09:21:21;8.90;;;2.50;;
23812;SDS011;12087;45.190;5.688;2023-03-25T09:26:44;7.45;;;2.25;;
23812;SDS011;12087;45.190;5.688;2023-03-25T09:32:06;12.25;;;2.08;;
23812;SDS011;12087;45.190;5.688;2023-03-25T09:37:29;8.85;;;2.40;;
23812;SDS011;12087;45.190;5.688;2023-03-25T09:42:58;6.95;;;2.30;;
23812;SDS011;12087;45.190;5.688;2023-03-25T09:48:35;5.63;;;2.25;;
23812;SDS011;12087;45.190;5.688;2023-03-25T09:53:59;9.35;;;2.60;;
23812;SDS011;12087;45.190;5.688;2023-03-25T09:59:31;8.75;;;2.17;;
23812;SDS011;12087;45.190;5.688;2023-03-25T10:05:10;7.88;;;2.28;;
23812;SDS011;12087;45.190;5.688;2023-03-25T10:10:44;6.78;;;2.30;;
23812;SDS011;12087;45.190;5.688;2023-03-25T10:16:16;6.40;;;1.98;;
23812;SDS011;12087;45.190;5.688;2023-03-25T10:21:46;13.23;;;2.20;;
23812;SDS011;12087;45.190;5.688;2023-03-25T10:27:14;7.57;;;1.67;;
23812;SDS011;12087;45.190;5.688;2023-03-25T10:38:10;5.57;;;1.58;;
23812;SDS011;12087;45.190;5.688;2023-03-25T10:43:39;6.33;;;1.80;;
23812;SDS011;12087;45.190;5.688;2023-03-25T10:49:03;4.38;;;1.48;;
23812;SDS011;12087;45.190;5.688;2023-03-25T10:54:26;6.70;;;1.20;;
23812;SDS011;12087;45.190;5.688;2023-03-25T10:59:57;7.00;;;1.52;;
23812;SDS011;12087;45.190;5.688;2023-03-25T11:05:27;6.03;;;1.55;;
23812;SDS011;12087;45.190;5.688;2023-03-25T11:10:50;9.23;;;1.63;;
23812;SDS011;12087;45.190;5.688;2023-03-25T11:16:16;3.78;;;1.15;;
23812;SDS011;12087;45.190;5.688;2023-03-25T11:21:39;3.58;;;1.50;;
23812;SDS011;12087;45.190;5.688;2023-03-25T11:27:07;4.30;;;1.40;;
23812;SDS011;12087;45.190;5.688;2023-03-25T11:32:32;8.02;;;1.58;;
23812;SDS011;12087;45.190;5.688;2023-03-25T11:37:58;3.83;;;1.25;;
23812;SDS011;12087;45.190;5.688;2023-03-25T11:43:22;1.83;;;0.70;;
23812;SDS011;12087;45.190;5.688;2023-03-25T11:48:46;2.70;;;0.85;;
23812;SDS011;12087;45.190;5.688;2023-03-25T11:54:11;2.42;;;0.80;;
23812;SDS011;12087;45.190;5.688;2023-03-25T11:59:38;4.63;;;1.00;;
23812;SDS011;12087;45.190;5.688;2023-03-25T12:05:09;2.47;;;0.73;;
23812;SDS011;12087;45.190;5.688;2023-03-25T12:10:38;3.75;;;1.00;;
23812;SDS011;12087;45.190;5.688;2023-03-25T12:16:13;3.45;;;0.75;;
23812;SDS011;12087;45.190;5.688;2023-03-25T12:21:45;2.45;;;0.82;;
23812;SDS011;12087;45.190;5.688;2023-03-25T12:27:23;2.58;;;0.52;;
23812;SDS011;12087;45.190;5.688;2023-03-25T12:32:55;3.33;;;0.82;;
23812;SDS011;12087;45.190;5.688;2023-03-25T12:38:28;3.22;;;0.88;;
23812;SDS011;12087;45.190;5.688;2023-03-25T12:44:03;2.97;;;0.90;;
23812;SDS011;12087;45.190;5.688;2023-03-25T12:49:40;3.65;;;0.60;;
23812;SDS011;12087;45.190;5.688;2023-03-25T12:55:29;2.13;;;0.75;;
23812;SDS011;12087;45.190;5.688;2023-03-25T13:01:02;2.05;;;0.68;;
23812;SDS011;12087;45.190;5.688;2023-03-25T13:06:32;6.72;;;0.98;;
23812;SDS011;12087;45.190;5.688;2023-03-25T13:12:00;2.50;;;0.82;;
23812;SDS011;12087;45.190;5.688;2023-03-25T13:17:27;3.70;;;1.35;;
23812;SDS011;12087;45.190;5.688;2023-03-25T13:28:21;2.80;;;1.02;;
23812;SDS011;12087;45.190;5.688;2023-03-25T13:33:51;5.85;;;0.90;;
23812;SDS011;12087;45.190;5.688;2023-03-25T13:39:18;1.77;;;0.90;;
23812;SDS011;12087;45.190;5.688;2023-03-25T13:44:43;2.60;;;0.75;;
23812;SDS011;12087;45.190;5.688;2023-03-25T13:50:15;5.88;;;1.13;;
23812;SDS011;12087;45.190;5.688;2023-03-25T13:55:45;2.63;;;0.77;;
23812;SDS011;12087;45.190;5.688;2023-03-25T14:01:19;6.32;;;1.80;;
23812;SDS011;12087;45.190;5.688;2023-03-25T14:12:55;2.60;;;0.70;;
23812;SDS011;12087;45.190;5.688;2023-03-25T14:18:19;4.03;;;0.90;;
23812;SDS011;12087;45.190;5.688;2023-03-25T14:23:42;2.03;;;0.70;;
23812;SDS011;12087;45.190;5.688;2023-03-25T14:29:08;2.78;;;0.80;;
23812;SDS011;12087;45.190;5.688;2023-03-25T14:34:39;3.55;;;0.80;;
23812;SDS011;12087;45.190;5.688;2023-03-25T14:40:43;6.43;;;1.20;;
23812;SDS011;12087;45.190;5.688;2023-03-25T14:46:14;1.75;;;0.70;;
23812;SDS011;12087;45.190;5.688;2023-03-25T14:51:42;3.03;;;1.20;;
23812;SDS011;12087;45.190;5.688;2023-03-25T14:57:06;2.00;;;0.95;;
23812;SDS011;12087;45.190;5.688;2023-03-25T15:02:36;4.33;;;1.10;;
23812;SDS011;12087;45.190;5.688;2023-03-25T15:07:59;1.63;;;0.90;;
23812;SDS011;12087;45.190;5.688;2023-03-25T15:13:33;2.60;;;1.00;;
23812;SDS011;12087;45.190;5.688;2023-03-25T15:19:02;2.28;;;0.73;;
23812;SDS011;12087;45.190;5.688;2023-03-25T15:24:26;4.13;;;1.00;;
23812;SDS011;12087;45.190;5.688;2023-03-25T15:29:53;1.98;;;0.80;;
23812;SDS011;12087;45.190;5.688;2023-03-25T15:35:30;5.50;;;1.13;;
23812;SDS011;12087;45.190;5.688;2023-03-25T15:41:08;3.58;;;0.80;;
23812;SDS011;12087;45.190;5.688;2023-03-25T15:46:58;9.38;;;1.63;;
23812;SDS011;12087;45.190;5.688;2023-03-25T15:52:37;1.63;;;0.63;;
23812;SDS011;12087;45.190;5.688;2023-03-25T15:58:24;6.30;;;0.90;;
23812;SDS011;12087;45.190;5.688;2023-03-25T16:03:55;3.65;;;1.00;;
23812;SDS011;12087;45.190;5.688;2023-03-25T16:09:22;1.77;;;1.10;;
23812;SDS011;12087;45.190;5.688;2023-03-25T16:14:47;2.65;;;1.00;;
23812;SDS011;12087;45.190;5.688;2023-03-25T16:20:11;3.55;;;1.02;;
23812;SDS011;12087;45.190;5.688;2023-03-25T16:25:39;3.60;;;1.08;;
23812;SDS011;12087;45.190;5.688;2023-03-25T16:31:02;5.15;;;1.30;;
23812;SDS011;12087;45.190;5.688;2023-03-25T16:36:25;3.90;;;1.33;;
23812;SDS011;12087;45.190;5.688;2023-03-25T16:41:50;3.60;;;1.20;;
23812;SDS011;12087;45.190;5.688;2023-03-25T16:47:19;5.85;;;1.00;;
23812;SDS011;12087;45.190;5.688;2023-03-25T16:52:42;4.03;;;1.30;;
23812;SDS011;12087;45.190;5.688;2023-03-25T16:58:12;6.47;;;1.30;;
23812;SDS011;12087;45.190;5.688;2023-03-25T17:03:38;7.03;;;1.40;;
23812;SDS011;12087;45.190;5.688;2023-03-25T17:09:02;5.38;;;1.40;;
23812;SDS011;12087;45.190;5.688;2023-03-25T17:14:28;3.78;;;1.20;;
23812;SDS011;12087;45.190;5.688;2023-03-25T17:19:52;7.00;;;2.40;;
23812;SDS011;12087;45.190;5.688;2023-03-25T17:25:22;6.10;;;2.35;;
23812;SDS011;12087;45.190;5.688;2023-03-25T17:30:48;4.20;;;1.42;;
23812;SDS011;12087;45.190;5.688;2023-03-25T17:36:10;4.68;;;1.58;;
23812;SDS011;12087;45.190;5.688;2023-03-25T17:41:34;3.78;;;1.20;;
23812;SDS011;12087;45.190;5.688;2023-03-25T17:47:00;4.82;;;1.33;;
23812;SDS011;12087;45.190;5.688;2023-03-25T17:52:23;11.45;;;1.73;;
23812;SDS011;12087;45.190;5.688;2023-03-25T17:57:47;3.97;;;1.05;;
23812;SDS011;12087;45.190;5.688;2023-03-25T18:03:12;6.32;;;1.30;;
23812;SDS011;12087;45.190;5.688;2023-03-25T18:08:35;6.97;;;2.10;;
23812;SDS011;12087;45.190;5.688;2023-03-25T18:13:57;4.13;;;1.42;;
23812;SDS011;12087;45.190;5.688;2023-03-25T18:19:21;3.88;;;2.10;;
23812;SDS011;12087;45.190;5.688;2023-03-25T18:24:44;4.03;;;2.10;;
23812;SDS011;12087;45.190;5.688;2023-03-25T18:30:17;4.40;;;1.35;;
23812;SDS011;12087;45.190;5.688;2023-03-25T18:35:43;5.90;;;1.55;;
23812;SDS011;12087;45.190;5.688;2023-03-25T18:41:06;3.90;;;2.10;;
23812;SDS011;12087;45.190;5.688;2023-03-25T18:46:30;9.02;;;1.95;;
23812;SDS011;12087;45.190;5.688;2023-03-25T18:51:54;8.07;;;3.58;;
23812;SDS011;12087;45.190;5.688;2023-03-25T18:57:18;18.00;;;9.77;;
23812;SDS011;12087;45.190;5.688;2023-03-25T19:02:43;18.05;;;9.65;;
23812;SDS011;12087;45.190;5.688;2023-03-25T19:08:09;7.45;;;2.40;;
23812;SDS011;12087;45.190;5.688;2023-03-25T19:13:36;13.88;;;7.65;;
23812;SDS011;12087;45.190;5.688;2023-03-25T19:18:59;44.17;;;26.75;;
23812;SDS011;12087;45.190;5.688;2023-03-25T19:24:22;6.88;;;4.22;;
23812;SDS011;12087;45.190;5.688;2023-03-25T19:29:45;10.00;;;6.28;;
23812;SDS011;12087;45.190;5.688;2023-03-25T19:35:09;5.55;;;3.30;;
23812;SDS011;12087;45.190;5.688;2023-03-25T19:40:35;5.15;;;2.60;;
23812;SDS011;12087;45.190;5.688;2023-03-25T19:45:58;2.78;;;1.60;;
23812;SDS011;12087;45.190;5.688;2023-03-25T19:51:21;6.28;;;2.95;;
23812;SDS011;12087;45.190;5.688;2023-03-25T19:56:44;5.40;;;2.17;;
23812;SDS011;12087;45.190;5.688;2023-03-25T20:02:08;14.77;;;3.33;;
23812;SDS011;12087;45.190;5.688;2023-03-25T20:07:31;3.33;;;1.83;;
23812;SDS011;12087;45.190;5.688;2023-03-25T20:12:55;7.70;;;2.90;;
23812;SDS011;12087;45.190;5.688;2023-03-25T20:18:17;5.65;;;2.55;;
23812;SDS011;12087;45.190;5.688;2023-03-25T20:23:40;2.88;;;1.70;;
23812;SDS011;12087;45.190;5.688;2023-03-25T20:29:04;5.85;;;2.03;;
23812;SDS011;12087;45.190;5.688;2023-03-25T20:34:26;3.15;;;2.10;;
23812;SDS011;12087;45.190;5.688;2023-03-25T20:39:48;6.55;;;2.63;;
23812;SDS011;12087;45.190;5.688;2023-03-25T20:45:12;6.30;;;2.70;;
23812;SDS011;12087;45.190;5.688;2023-03-25T20:50:36;9.40;;;4.57;;
23812;SDS011;12087;45.190;5.688;2023-03-25T20:55:58;9.40;;;4.75;;
23812;SDS011;12087;45.190;5.688;2023-03-25T21:01:22;8.30;;;5.65;;
23812;SDS011;12087;45.190;5.688;2023-03-25T21:06:45;7.30;;;3.67;;
23812;SDS011;12087;45.190;5.688;2023-03-25T21:12:07;9.05;;;3.22;;
23812;SDS011;12087;45.190;5.688;2023-03-25T21:17:31;5.97;;;2.85;;
23812;SDS011;12087;45.190;5.688;2023-03-25T21:22:53;5.97;;;2.60;;
23812;SDS011;12087;45.190;5.688;2023-03-25T21:28:18;4.63;;;2.42;;
23812;SDS011;12087;45.190;5.688;2023-03-25T21:33:42;7.32;;;2.83;;
23812;SDS011;12087;45.190;5.688;2023-03-25T21:39:07;4.68;;;2.47;;
23812;SDS011;12087;45.190;5.688;2023-03-25T21:44:29;6.80;;;3.03;;
23812;SDS011;12087;45.190;5.688;2023-03-25T21:49:53;6.40;;;2.60;;
23812;SDS011;12087;45.190;5.688;2023-03-25T21:55:15;6.35;;;2.70;;
23812;SDS011;12087;45.190;5.688;2023-03-25T22:00:38;5.75;;;3.08;;
23812;SDS011;12087;45.190;5.688;2023-03-25T22:06:02;6.72;;;2.80;;
23812;SDS011;12087;45.190;5.688;2023-03-25T22:11:26;9.85;;;3.15;;
23812;SDS011;12087;45.190;5.688;2023-03-25T22:16:49;9.48;;;2.88;;
23812;SDS011;12087;45.190;5.688;2023-03-25T22:22:13;5.80;;;3.30;;
23812;SDS011;12087;45.190;5.688;2023-03-25T22:27:38;5.72;;;3.08;;
23812;SDS011;12087;45.190;5.688;2023-03-25T22:33:00;8.25;;;3.40;;
23812;SDS011;12087;45.190;5.688;2023-03-25T22:38:24;8.75;;;3.30;;
23812;SDS011;12087;45.190;5.688;2023-03-25T22:43:46;5.78;;;3.00;;
23812;SDS011;12087;45.190;5.688;2023-03-25T22:49:08;6.80;;;3.13;;
23812;SDS011;12087;45.190;5.688;2023-03-25T22:54:32;8.70;;;3.45;;
23812;SDS011;12087;45.190;5.688;2023-03-25T22:59:55;8.65;;;4.55;;
23812;SDS011;12087;45.190;5.688;2023-03-25T23:05:17;9.07;;;4.38;;
23812;SDS011;12087;45.190;5.688;2023-03-25T23:10:43;7.32;;;3.88;;
23812;SDS011;12087;45.190;5.688;2023-03-25T23:16:06;7.15;;;3.90;;
23812;SDS011;12087;45.190;5.688;2023-03-25T23:21:30;8.93;;;5.15;;
23812;SDS011;12087;45.190;5.688;2023-03-25T23:26:54;8.13;;;4.25;;
23812;SDS011;12087;45.190;5.688;2023-03-25T23:32:16;8.57;;;3.90;;
23812;SDS011;12087;45.190;5.688;2023-03-25T23:37:38;7.93;;;4.18;;
23812;SDS011;12087;45.190;5.688;2023-03-25T23:43:02;6.55;;;3.70;;
23812;SDS011;12087;45.190;5.688;2023-03-25T23:48:25;6.60;;;3.65;;
23812;SDS011;12087;45.190;5.688;2023-03-25T23:53:48;9.05;;;3.95;;
23812;SDS011;12087;45.190;5.688;2023-03-25T23:59:12;6.43;;;2.78;;
